Time;durP1;ratioP1;P1;durP2;ratioP2;P2;SDS_P1;SDS_P2;PMS_P1;PMS_P2;Temp;Humidity;BMP_temperature;BMP_pressure;BME280_temperature;BME280_humidity;BME280_pressure;Samples;Min_cycle;Max_cycle;Signal;HPM_P1;HPM_P2
2021/11/15 00:00:36;;;;;;;6.17;5.67;;;;;;;5.77;100.00;98680.88;4983149;28;20235;-73
2021/11/15 00:03:04;;;;;;;8.40;5.40;;;;;;;5.68;100.00;98683.34;5014937;28;20512;-73
2021/11/15 00:05:32;;;;;;;6.33;5.40;;;;;;;5.61;100.00;98680.38;5023124;28;20786;-74
2021/11/15 00:08:02;;;;;;;6.53;5.83;;;;;;;5.65;100.00;98676.56;5013003;28;20965;-73
2021/11/15 00:10:30;;;;;;;5.77;5.23;;;;;;;5.69;100.00;98679.81;5026379;28;20234;-73
2021/11/15 00:12:58;;;;;;;6.00;5.40;;;;;;;5.75;100.00;98672.28;5020930;28;20277;-73
2021/11/15 00:15:29;;;;;;;6.23;5.73;;;;;;;5.63;100.00;98681.91;4989172;28;20223;-74
2021/11/15 00:17:57;;;;;;;5.83;5.17;;;;;;;5.62;100.00;98679.41;4981647;28;20230;-73
2021/11/15 00:20:26;;;;;;;6.33;5.80;;;;;;;5.64;100.00;98680.97;5021990;28;20215;-74
2021/11/15 00:22:54;;;;;;;5.80;5.30;;;;;;;5.59;100.00;98675.22;5021495;28;20206;-74
2021/11/15 00:25:23;;;;;;;6.57;5.53;;;;;;;5.54;100.00;98673.91;5017731;28;20406;-72
2021/11/15 00:27:51;;;;;;;6.17;5.63;;;;;;;5.56;100.00;98669.38;5021306;28;20216;-74
2021/11/15 00:30:19;;;;;;;8.20;5.93;;;;;;;5.58;100.00;98678.81;5016760;28;20212;-72
2021/11/15 00:32:47;;;;;;;5.67;5.17;;;;;;;5.61;100.00;98673.31;4984599;28;20212;-72
2021/11/15 00:35:15;;;;;;;6.00;5.47;;;;;;;5.62;100.00;98669.72;5019452;28;20237;-72
2021/11/15 00:37:43;;;;;;;6.77;5.33;;;;;;;5.52;100.00;98671.38;5018515;28;20227;-71
2021/11/15 00:40:14;;;;;;;6.67;6.10;;;;;;;5.55;100.00;98673.78;5022485;28;20492;-71
2021/11/15 00:42:43;;;;;;;5.33;4.83;;;;;;;5.63;100.00;98683.72;5020568;28;20440;-73
2021/11/15 00:45:13;;;;;;;5.60;5.10;;;;;;;5.45;100.00;98670.16;5022110;28;20584;-71
2021/11/15 00:47:42;;;;;;;5.63;5.10;;;;;;;5.50;100.00;98673.28;4978150;28;20736;-75
2021/11/15 00:50:13;;;;;;;7.77;6.20;;;;;;;5.45;100.00;98665.72;5012772;28;20212;-73
2021/11/15 00:52:41;;;;;;;5.47;4.97;;;;;;;5.57;100.00;98668.41;5020162;28;20261;-75
2021/11/15 00:55:10;;;;;;;6.60;5.40;;;;;;;5.51;100.00;98672.34;5016873;28;20204;-73
2021/11/15 00:57:38;;;;;;;7.67;5.60;;;;;;;5.45;100.00;98678.06;5025616;28;20250;-74
2021/11/15 01:00:12;;;;;;;5.93;5.23;;;;;;;5.47;100.00;98679.59;5023306;28;20212;-74
2021/11/15 01:02:40;;;;;;;6.43;5.50;;;;;;;5.44;100.00;98677.19;5003875;28;20209;-72
2021/11/15 01:05:08;;;;;;;6.23;5.40;;;;;;;5.46;100.00;98680.56;4982875;28;20290;-72
2021/11/15 01:07:36;;;;;;;6.27;5.50;;;;;;;5.43;100.00;98679.97;5014527;28;20208;-74
2021/11/15 01:10:06;;;;;;;6.40;5.90;;;;;;;5.48;100.00;98680.44;5015467;28;20677;-75
2021/11/15 01:12:34;;;;;;;5.90;5.40;;;;;;;5.40;100.00;98681.00;5017911;28;20216;-74
2021/11/15 01:15:02;;;;;;;6.17;5.27;;;;;;;5.46;100.00;98682.34;5021713;28;20204;-74
2021/11/15 01:17:32;;;;;;;5.47;5.03;;;;;;;5.61;100.00;98683.81;5009399;28;20640;-74
2021/11/15 01:20:00;;;;;;;5.30;4.80;;;;;;;5.44;100.00;98682.47;4982547;28;20592;-75
2021/11/15 01:22:28;;;;;;;6.03;5.43;;;;;;;5.54;100.00;98677.34;5018455;28;20298;-75
2021/11/15 01:24:59;;;;;;;6.13;5.60;;;;;;;5.39;100.00;98684.59;5014046;28;20211;-75
2021/11/15 01:27:27;;;;;;;6.03;5.37;;;;;;;5.36;100.00;98679.56;5016174;28;20211;-74
2021/11/15 01:29:54;;;;;;;6.20;5.60;;;;;;;5.36;100.00;98684.81;5013915;28;20200;-74
2021/11/15 01:32:23;;;;;;;5.80;5.37;;;;;;;5.30;100.00;98685.28;5006175;28;20229;-72
2021/11/15 01:34:52;;;;;;;6.70;6.00;;;;;;;5.33;100.00;98682.44;4986881;28;20588;-74
2021/11/15 01:37:21;;;;;;;6.40;5.80;;;;;;;5.29;100.00;98681.81;5015065;28;20204;-72
2021/11/15 01:39:49;;;;;;;6.60;6.00;;;;;;;5.26;100.00;98681.22;5020468;28;20215;-75
2021/11/15 01:42:18;;;;;;;7.10;6.47;;;;;;;5.34;100.00;98692.84;5020048;28;20313;-73
2021/11/15 01:44:46;;;;;;;7.03;6.27;;;;;;;5.22;100.00;98685.84;5020267;28;20214;-74
2021/11/15 01:47:14;;;;;;;6.60;6.00;;;;;;;5.31;100.00;98681.69;5016340;28;20205;-72
2021/11/15 01:49:42;;;;;;;6.47;5.87;;;;;;;5.35;100.00;98680.53;5012655;28;20417;-73
2021/11/15 01:52:14;;;;;;;6.20;5.60;;;;;;;5.40;100.00;98674.94;4986402;28;20326;-71
2021/11/15 01:54:42;;;;;;;8.03;6.23;;;;;;;5.40;100.00;98675.75;5024062;28;20208;-72
2021/11/15 01:57:12;;;;;;;6.20;5.63;;;;;;;5.28;100.00;98677.50;5021346;28;20544;-72
2021/11/15 01:59:40;;;;;;;6.13;5.63;;;;;;;5.20;100.00;98685.97;5016302;28;20641;-74
2021/11/15 02:02:08;;;;;;;7.40;6.80;;;;;;;5.28;100.00;98676.69;5019290;28;20228;-71
2021/11/15 02:04:36;;;;;;;6.73;5.97;;;;;;;5.22;100.00;98677.94;5005749;28;20469;-73
2021/11/15 02:07:04;;;;;;;6.83;6.23;;;;;;;5.16;100.00;98675.78;4965483;28;20415;-72
2021/11/15 02:09:34;;;;;;;6.40;5.60;;;;;;;5.25;100.00;98680.34;5018763;28;20774;-73
2021/11/15 02:12:03;;;;;;;6.63;6.13;;;;;;;5.25;100.00;98684.78;5014829;28;20564;-74
2021/11/15 02:14:30;;;;;;;7.63;6.23;;;;;;;5.26;100.00;98681.22;5018752;28;20716;-74
2021/11/15 02:16:58;;;;;;;7.90;6.13;;;;;;;5.26;100.00;98671.53;5018067;28;20596;-71
2021/11/15 02:19:26;;;;;;;8.20;6.83;;;;;;;5.21;100.00;98674.50;5009446;28;20854;-73
2021/11/15 02:21:56;;;;;;;9.40;6.80;;;;;;;5.27;100.00;98669.75;4982168;28;20403;-73
2021/11/15 02:24:24;;;;;;;8.70;7.20;;;;;;;5.24;100.00;98669.97;5026290;28;20218;-75
2021/11/15 02:26:52;;;;;;;8.23;7.33;;;;;;;5.15;100.00;98663.59;4968260;28;20223;-75
2021/11/15 02:29:20;;;;;;;7.87;6.97;;;;;;;5.18;100.00;98664.22;5012379;28;20209;-75
2021/11/15 02:31:48;;;;;;;8.30;6.87;;;;;;;5.12;100.00;98658.56;5023526;28;20318;-76
2021/11/15 02:34:16;;;;;;;8.33;7.03;;;;;;;5.14;100.00;98660.16;5010033;28;20230;-71
2021/11/15 02:36:44;;;;;;;8.03;7.23;;;;;;;5.09;100.00;98648.28;5021060;28;20223;-72
2021/11/15 02:39:14;;;;;;;8.37;7.47;;;;;;;5.12;100.00;98646.28;5014646;28;20232;-71
2021/11/15 02:41:42;;;;;;;8.83;7.93;;;;;;;5.10;100.00;98648.16;4984059;28;20242;-73
2021/11/15 02:44:10;;;;;;;8.83;7.77;;;;;;;5.03;100.00;98646.94;5020290;28;20227;-71
2021/11/15 02:46:38;;;;;;;8.17;7.37;;;;;;;5.20;100.00;98645.69;5026212;28;20211;-73
2021/11/15 02:49:06;;;;;;;10.17;8.53;;;;;;;5.11;100.00;98647.22;5006385;28;20613;-71
2021/11/15 02:51:36;;;;;;;10.03;7.67;;;;;;;5.02;100.00;98648.75;5016692;28;20232;-73
2021/11/15 02:54:04;;;;;;;10.17;7.90;;;;;;;5.01;100.00;98648.84;5017433;28;20211;-72
2021/11/15 02:56:35;;;;;;;9.87;7.57;;;;;;;5.13;100.00;98653.22;4981720;28;21955;-73
2021/11/15 02:59:04;;;;;;;9.23;7.57;;;;;;;4.99;100.00;98656.84;5008446;28;20420;-71
2021/11/15 03:01:32;;;;;;;9.40;8.50;;;;;;;4.99;100.00;98648.13;5021728;28;20250;-72
2021/11/15 03:04:00;;;;;;;10.07;8.63;;;;;;;4.92;100.00;98645.94;5003584;28;20212;-71
2021/11/15 03:06:28;;;;;;;12.63;9.93;;;;;;;4.98;100.00;98646.44;5018882;28;20425;-73
2021/11/15 03:08:56;;;;;;;11.43;8.83;;;;;;;5.11;100.00;98638.50;5019187;28;20223;-74
2021/11/15 03:11:24;;;;;;;13.03;10.00;;;;;;;5.04;100.00;98636.34;4978879;28;21680;-73
2021/11/15 03:13:53;;;;;;;8.23;7.43;;;;;;;5.01;100.00;98646.22;5018471;28;20239;-73
2021/11/15 03:16:21;;;;;;;10.83;8.50;;;;;;;5.03;100.00;98639.06;5018180;28;20283;-73
2021/11/15 03:18:49;;;;;;;9.37;8.37;;;;;;;5.03;100.00;98636.44;5009193;28;20818;-72
2021/11/15 03:21:19;;;;;;;11.47;9.43;;;;;;;5.03;100.00;98639.06;5017175;28;20223;-72
2021/11/15 03:23:49;;;;;;;10.47;8.80;;;;;;;5.14;100.00;98633.88;5018657;28;20211;-73
2021/11/15 03:26:21;;;;;;;12.13;9.03;;;;;;;4.99;100.00;98637.63;5015183;28;20270;-72
2021/11/15 03:28:55;;;;;;;14.00;10.83;;;;;;;4.98;100.00;98634.16;4982661;28;20590;-72
2021/11/15 03:31:25;;;;;;;13.23;10.33;;;;;;;4.97;100.00;98640.38;5018742;28;20254;-72
2021/11/15 03:33:55;;;;;;;11.50;9.97;;;;;;;4.98;100.00;98630.69;5016584;28;20212;-71
2021/11/15 03:36:24;;;;;;;15.27;11.17;;;;;;;5.05;100.00;98635.38;5012541;28;20212;-73
2021/11/15 03:38:52;;;;;;;13.73;10.33;;;;;;;4.97;100.00;98634.25;5021177;28;20223;-73
2021/11/15 03:41:21;;;;;;;13.37;10.30;;;;;;;5.10;100.00;98632.41;5014065;28;20779;-76
2021/11/15 03:43:49;;;;;;;17.43;12.17;;;;;;;4.98;100.00;98628.06;4974338;28;20379;-75
2021/11/15 03:46:19;;;;;;;15.40;11.33;;;;;;;5.04;100.00;98617.09;5013740;28;20204;-76
2021/11/15 03:48:47;;;;;;;17.40;12.57;;;;;;;5.01;100.00;98618.16;5011431;28;20665;-74
2021/11/15 03:51:15;;;;;;;16.50;12.20;;;;;;;4.98;100.00;98621.03;5001534;28;20259;-76
2021/11/15 03:53:43;;;;;;;15.70;12.03;;;;;;;5.02;100.00;98614.59;5014208;28;20230;-75
2021/11/15 03:56:13;;;;;;;14.03;11.17;;;;;;;4.99;100.00;98619.22;5014174;28;20208;-74
2021/11/15 03:58:43;;;;;;;17.83;11.70;;;;;;;4.99;100.00;98621.84;5014934;28;20392;-76
2021/11/15 04:01:12;;;;;;;14.67;11.73;;;;;;;5.08;100.00;98621.16;4979020;28;20466;-76
2021/11/15 04:03:45;;;;;;;13.67;11.90;;;;;;;4.99;100.00;98632.34;5000078;28;20303;-73
2021/11/15 04:06:22;;;;;;;17.63;12.73;;;;;;;5.04;100.00;98623.19;5007728;28;20439;-75
2021/11/15 04:08:50;;;;;;;18.07;12.50;;;;;;;5.06;100.00;98625.69;5003793;28;20215;-73
2021/11/15 04:11:21;;;;;;;15.50;12.60;;;;;;;5.05;100.00;98624.88;5012316;28;20220;-76
2021/11/15 04:13:55;;;;;;;16.83;11.80;;;;;;;5.13;100.00;98624.31;5013445;28;20207;-74
2021/11/15 04:16:23;;;;;;;17.60;13.80;;;;;;;5.17;100.00;98627.53;4981583;28;20608;-74
2021/11/15 04:18:56;;;;;;;16.97;12.97;;;;;;;5.07;100.00;98616.88;5016001;28;20786;-74
2021/11/15 04:21:25;;;;;;;15.97;13.40;;;;;;;5.00;100.00;98631.41;5012870;28;20723;-72
2021/11/15 04:23:53;;;;;;;20.63;13.83;;;;;;;5.18;100.00;98619.56;5016966;28;20211;-72
2021/11/15 04:26:21;;;;;;;19.27;13.80;;;;;;;5.03;100.00;98615.41;5020875;28;20703;-76
2021/11/15 04:28:49;;;;;;;18.03;13.53;;;;;;;4.99;100.00;98613.97;5003802;28;20216;-74
2021/11/15 04:31:17;;;;;;;18.70;13.57;;;;;;;5.03;100.00;98615.41;4988908;28;20239;-74
2021/11/15 04:33:45;;;;;;;18.33;12.50;;;;;;;4.89;100.00;98616.44;4977046;28;20223;-72
2021/11/15 04:36:15;;;;;;;21.30;14.27;;;;;;;4.96;100.00;98620.31;4997160;28;20204;-74
2021/11/15 04:38:43;;;;;;;18.20;13.07;;;;;;;5.07;100.00;98612.47;5020519;28;20219;-75
2021/11/15 04:41:11;;;;;;;20.10;13.43;;;;;;;5.01;100.00;98612.91;5001773;28;20228;-74
2021/11/15 04:43:39;;;;;;;17.40;12.60;;;;;;;5.02;100.00;98625.09;5012400;28;20211;-73
2021/11/15 04:46:07;;;;;;;17.93;13.47;;;;;;;4.91;100.00;98611.91;5014176;28;20204;-73
2021/11/15 04:48:35;;;;;;;17.30;12.07;;;;;;;4.94;100.00;98619.59;4982067;28;20242;-73
2021/11/15 04:51:03;;;;;;;20.20;13.03;;;;;;;4.89;100.00;98619.06;5005923;28;20236;-73
2021/11/15 04:53:32;;;;;;;17.33;12.90;;;;;;;4.89;100.00;98616.44;5006849;28;20464;-73
2021/11/15 04:56:00;;;;;;;19.83;13.37;;;;;;;4.87;100.00;98619.19;5011518;28;20215;-69
2021/11/15 04:58:28;;;;;;;19.40;14.27;;;;;;;4.86;100.00;98619.28;5011530;28;20207;-71
2021/11/15 05:00:56;;;;;;;21.83;14.63;;;;;;;4.97;100.00;98621.13;5012396;28;20228;-73
2021/11/15 05:03:25;;;;;;;21.60;15.10;;;;;;;4.85;100.00;98617.59;4985471;28;20200;-72
2021/11/15 05:05:53;;;;;;;19.93;13.93;;;;;;;4.89;100.00;98629.56;5009910;28;20215;-74
2021/11/15 05:08:21;;;;;;;19.97;13.20;;;;;;;4.83;100.00;98625.63;5025131;28;20227;-71
2021/11/15 05:10:50;;;;;;;20.83;14.67;;;;;;;4.79;100.00;98624.16;5011466;28;20550;-74
2021/11/15 05:13:18;;;;;;;19.60;13.60;;;;;;;4.88;100.00;98623.47;5025105;28;20208;-72
2021/11/15 05:15:46;;;;;;;21.10;13.57;;;;;;;4.92;100.00;98622.31;5019166;28;20335;-73
2021/11/15 05:18:15;;;;;;;22.43;14.23;;;;;;;4.98;100.00;98626.28;5019271;28;20267;-72
2021/11/15 05:20:43;;;;;;;18.80;13.37;;;;;;;5.20;100.00;98620.28;4995397;28;20454;-72
2021/11/15 05:23:11;;;;;;;19.73;13.27;;;;;;;5.15;100.00;98619.78;5020025;28;20204;-72
2021/11/15 05:25:39;;;;;;;17.70;12.50;;;;;;;5.01;100.00;98618.16;5023852;28;20814;-73
2021/11/15 05:28:09;;;;;;;22.33;14.43;;;;;;;5.03;100.00;98625.94;5017430;28;20239;-74
2021/11/15 05:30:37;;;;;;;18.17;13.83;;;;;;;5.05;100.00;98614.38;5021062;28;20212;-73
2021/11/15 05:33:05;;;;;;;18.83;13.83;;;;;;;5.15;100.00;98613.69;5020117;28;20205;-74
2021/11/15 05:35:36;;;;;;;18.57;13.43;;;;;;;4.99;100.00;98622.69;4988516;28;20913;-73
2021/11/15 05:38:05;;;;;;;20.93;14.00;;;;;;;5.00;100.00;98621.75;5005455;28;20208;-70
2021/11/15 05:40:33;;;;;;;19.37;12.80;;;;;;;5.03;100.00;98618.03;5012220;28;20716;-74
2021/11/15 05:43:01;;;;;;;14.53;12.97;;;;;;;4.89;100.00;98622.53;5015797;28;20475;-74
2021/11/15 05:45:31;;;;;;;18.20;13.30;;;;;;;4.95;100.00;98617.78;5025500;28;20853;-73
2021/11/15 05:47:59;;;;;;;17.00;13.17;;;;;;;4.96;100.00;98629.97;5015357;28;20622;-74
2021/11/15 05:50:29;;;;;;;19.17;12.50;;;;;;;4.86;100.00;98617.50;4981907;28;20235;-73
2021/11/15 05:52:58;;;;;;;15.70;12.13;;;;;;;4.85;100.00;98623.72;5013647;28;20620;-74
2021/11/15 05:55:26;;;;;;;21.53;13.83;;;;;;;4.85;100.00;98621.09;5015575;28;20204;-73
2021/11/15 05:57:55;;;;;;;19.30;12.67;;;;;;;4.92;100.00;98627.56;5023872;28;20630;-75
2021/11/15 06:00:24;;;;;;;21.40;13.37;;;;;;;4.85;100.00;98630.72;5000962;28;20244;-72
2021/11/15 06:02:54;;;;;;;17.50;13.43;;;;;;;4.82;100.00;98634.44;5020020;28;20203;-74
2021/11/15 06:05:23;;;;;;;17.40;12.30;;;;;;;4.86;100.00;98628.00;5017022;28;21287;-73
2021/11/15 06:07:51;;;;;;;18.97;14.43;;;;;;;4.83;100.00;98635.25;4978578;28;20227;-73
2021/11/15 06:10:20;;;;;;;18.23;12.90;;;;;;;4.81;100.00;98634.53;5028023;28;20204;-76
2021/11/15 06:12:48;;;;;;;22.27;14.70;;;;;;;4.86;100.00;98638.53;5007642;28;20218;-73
2021/11/15 06:15:18;;;;;;;18.00;15.93;;;;;;;4.87;100.00;98644.59;5004314;28;20220;-75
2021/11/15 06:17:47;;;;;;;19.83;13.33;;;;;;;4.90;100.00;98647.00;5022805;28;20211;-73
2021/11/15 06:20:17;;;;;;;18.50;14.20;;;;;;;4.91;100.00;98644.28;5013341;28;20736;-75
2021/11/15 06:22:46;;;;;;;17.63;13.33;;;;;;;4.82;100.00;98650.19;4992214;28;20226;-72
2021/11/15 06:25:16;;;;;;;17.73;13.03;;;;;;;4.99;100.00;98654.22;5015592;28;20397;-73
2021/11/15 06:27:45;;;;;;;19.23;14.67;;;;;;;5.12;100.00;98646.28;5018841;28;20218;-72
2021/11/15 06:30:15;;;;;;;20.63;15.00;;;;;;;5.20;100.00;98657.06;5017306;28;20491;-75
2021/11/15 06:32:43;;;;;;;23.83;14.33;;;;;;;5.27;100.00;98648.72;5018634;28;20778;-73
2021/11/15 06:35:12;;;;;;;19.07;13.80;;;;;;;5.23;100.00;98650.72;5017426;28;20603;-75
2021/11/15 06:37:43;;;;;;;20.57;14.67;;;;;;;5.35;100.00;98654.22;4988314;28;20212;-75
2021/11/15 06:40:13;;;;;;;18.53;11.67;;;;;;;5.55;100.00;98658.00;4981813;28;20208;-73
2021/11/15 06:42:41;;;;;;;19.17;12.63;;;;;;;5.32;100.00;98655.31;5021640;28;20211;-74
2021/11/15 06:45:11;;;;;;;21.30;13.23;;;;;;;5.15;100.00;98661.81;5016451;28;20208;-73
2021/11/15 06:47:41;;;;;;;17.80;14.60;;;;;;;5.18;100.00;98660.75;5017077;28;20216;-74
2021/11/15 06:50:11;;;;;;;20.37;15.03;;;;;;;5.06;100.00;98667.72;5016555;28;20212;-72
2021/11/15 06:52:41;;;;;;;22.47;17.87;;;;;;;5.03;100.00;98667.97;5020144;28;20205;-75
2021/11/15 06:55:11;;;;;;;20.10;15.70;;;;;;;5.02;100.00;98661.03;4988005;28;20216;-73
2021/11/15 06:57:40;;;;;;;17.93;13.07;;;;;;;5.03;100.00;98662.69;5017841;28;20246;-75
2021/11/15 07:00:12;;;;;;;16.77;12.53;;;;;;;4.93;100.00;98666.00;5016685;28;20215;-73
2021/11/15 07:02:39;;;;;;;17.40;12.47;;;;;;;4.99;100.00;98663.88;5010214;28;21073;-75
2021/11/15 07:05:11;;;;;;;20.93;12.10;;;;;;;4.98;100.00;98665.69;5014267;28;20204;-73
2021/11/15 07:07:39;;;;;;;15.27;11.80;;;;;;;5.00;100.00;98661.16;5019540;28;20210;-75
2021/11/15 07:10:10;;;;;;;18.63;13.27;;;;;;;4.94;100.00;98664.22;4993001;28;20205;-73
2021/11/15 07:12:39;;;;;;;19.37;11.60;;;;;;;4.97;100.00;98664.00;5018926;28;20209;-77
2021/11/15 07:15:09;;;;;;;17.27;12.20;;;;;;;4.97;100.00;98660.53;5019220;28;20215;-73
2021/11/15 07:17:37;;;;;;;17.60;12.83;;;;;;;4.97;100.00;98669.25;5017742;28;20204;-77
2021/11/15 07:20:06;;;;;;;16.17;12.83;;;;;;;4.93;100.00;98663.38;5010566;28;20211;-73
2021/11/15 07:22:35;;;;;;;13.77;11.23;;;;;;;5.02;100.00;98664.50;5016460;28;20623;-76
2021/11/15 07:25:08;;;;;;;23.13;12.53;;;;;;;5.04;100.00;98661.75;5015701;28;20216;-73
2021/11/15 07:27:36;;;;;;;21.07;12.47;;;;;;;4.98;100.00;98664.84;4989918;28;20223;-74
2021/11/15 07:30:06;;;;;;;16.23;11.97;;;;;;;4.96;100.00;98662.34;5011245;28;20219;-72
2021/11/15 07:32:34;;;;;;;17.10;11.73;;;;;;;5.03;100.00;98671.44;5023307;28;20226;-75
2021/11/15 07:35:02;;;;;;;19.10;13.43;;;;;;;5.16;100.00;98667.91;5011384;28;20720;-73
2021/11/15 07:37:30;;;;;;;17.13;12.33;;;;;;;5.07;100.00;98672.88;5012716;28;20209;-75
2021/11/15 07:39:58;;;;;;;18.67;11.17;;;;;;;5.08;100.00;98686.84;5011346;28;20204;-73
2021/11/15 07:42:27;;;;;;;16.50;11.37;;;;;;;5.04;100.00;98688.88;4990341;28;20224;-76
2021/11/15 07:44:55;;;;;;;16.90;11.50;;;;;;;5.10;100.00;98681.50;5017495;28;20208;-72
2021/11/15 07:47:23;;;;;;;13.87;10.33;;;;;;;5.12;100.00;98683.06;5015641;28;20219;-74
2021/11/15 07:49:51;;;;;;;16.47;11.87;;;;;;;5.15;100.00;98692.50;5016719;28;20676;-76
2021/11/15 07:52:21;;;;;;;13.53;10.83;;;;;;;5.12;100.00;98687.47;5017910;28;20398;-75
2021/11/15 07:54:49;;;;;;;15.90;10.93;;;;;;;5.06;100.00;98683.50;5022181;28;20203;-73
2021/11/15 07:57:19;;;;;;;15.10;11.00;;;;;;;5.20;100.00;98683.34;4982068;28;20869;-75
2021/11/15 07:59:48;;;;;;;16.70;11.03;;;;;;;5.16;100.00;98683.66;5022324;28;20224;-76
2021/11/15 08:02:17;;;;;;;15.30;11.40;;;;;;;5.13;100.00;98684.75;5012481;28;20553;-75
2021/11/15 08:04:46;;;;;;;11.93;10.00;;;;;;;5.20;100.00;98680.72;5009841;28;20246;-76
2021/11/15 08:07:17;;;;;;;14.87;10.37;;;;;;;5.26;100.00;98686.47;5016044;28;20574;-74
2021/11/15 08:09:45;;;;;;;15.57;11.23;;;;;;;5.26;100.00;98676.78;5017023;28;20683;-75
2021/11/15 08:12:13;;;;;;;13.30;9.50;;;;;;;5.28;100.00;98688.00;5012834;28;20458;-75
2021/11/15 08:14:42;;;;;;;14.00;11.03;;;;;;;5.26;100.00;98679.41;4986562;28;21332;-76
2021/11/15 08:17:14;;;;;;;13.77;9.67;;;;;;;5.31;100.00;98663.31;5012991;28;20204;-73
2021/11/15 08:19:43;;;;;;;12.97;9.83;;;;;;;5.31;100.00;98674.66;5017185;28;20774;-74
2021/11/15 08:22:13;;;;;;;16.50;10.33;;;;;;;5.42;100.00;98675.66;5006754;28;20248;-73
2021/11/15 08:25:34;;;;;;;13.17;9.50;;;;;;;5.30;100.00;98672.13;5020506;28;20208;-76
2021/11/15 08:28:03;;;;;;;14.50;11.73;;;;;;;5.28;100.00;98671.41;4999024;28;20204;-73
2021/11/15 08:30:32;;;;;;;14.67;9.93;;;;;;;5.31;100.00;98671.19;5018631;28;20307;-74
2021/11/15 08:33:02;;;;;;;11.70;9.97;;;;;;;5.30;100.00;98659.00;5017862;28;20755;-74
2021/11/15 08:35:30;;;;;;;13.67;10.23;;;;;;;5.36;100.00;98659.38;5002968;28;20740;-75
2021/11/15 08:38:37;;;;;;;14.27;9.97;;;;;;;5.48;100.00;98665.50;5004993;28;20215;-74
2021/11/15 08:41:06;;;;;;;14.07;9.57;;;;;;;5.38;100.00;98661.88;5016235;28;20232;-74
2021/11/15 08:43:35;;;;;;;13.13;9.37;;;;;;;5.41;100.00;98656.41;5022717;28;20342;-76
2021/11/15 08:46:04;;;;;;;13.57;10.03;;;;;;;5.38;100.00;98651.38;4992173;28;20211;-74
2021/11/15 08:48:34;;;;;;;13.27;10.27;;;;;;;5.46;100.00;98662.16;4993342;28;20655;-75
2021/11/15 08:51:05;;;;;;;11.80;9.37;;;;;;;5.48;100.00;98665.50;5016293;28;20231;-74
2021/11/15 08:53:33;;;;;;;14.87;10.30;;;;;;;5.44;100.00;98664.06;5011690;28;20354;-75
2021/11/15 08:56:01;;;;;;;13.83;10.63;;;;;;;5.51;100.00;98659.19;5014713;28;20215;-75
2021/11/15 08:58:29;;;;;;;11.90;10.03;;;;;;;5.55;100.00;98659.81;5004130;28;20482;-75
2021/11/15 09:00:58;;;;;;;10.90;9.03;;;;;;;5.79;100.00;98665.81;5014755;28;20224;-75
2021/11/15 09:03:26;;;;;;;12.63;9.80;;;;;;;5.65;100.00;98661.59;4979795;28;20337;-75
2021/11/15 09:05:55;;;;;;;14.70;10.37;;;;;;;5.56;100.00;98653.59;5006375;28;20231;-74
2021/11/15 09:08:23;;;;;;;11.77;9.47;;;;;;;5.64;100.00;98656.47;5020007;28;20204;-73
2021/11/15 09:10:52;;;;;;;13.17;9.03;;;;;;;5.63;100.00;98657.44;5007859;28;20744;-75
2021/11/15 09:13:20;;;;;;;12.33;10.30;;;;;;;5.64;100.00;98659.09;5004824;28;20212;-73
2021/11/15 09:15:48;;;;;;;11.73;9.50;;;;;;;5.73;100.00;98657.56;5020340;28;20215;-75
2021/11/15 09:18:16;;;;;;;11.17;9.07;;;;;;;5.83;100.00;98660.31;4986521;28;20207;-74
2021/11/15 09:20:44;;;;;;;14.57;11.00;;;;;;;5.78;100.00;98658.88;5009482;28;20232;-76
2021/11/15 09:23:13;;;;;;;13.00;9.87;;;;;;;5.75;100.00;98655.66;5022368;28;20232;-73
2021/11/15 09:25:42;;;;;;;11.53;10.20;;;;;;;5.92;100.00;98662.25;5024526;28;20429;-76
2021/11/15 09:28:11;;;;;;;11.23;9.10;;;;;;;5.86;100.00;98663.56;5021963;28;20200;-73
2021/11/15 09:30:42;;;;;;;13.13;9.60;;;;;;;6.04;100.00;98668.38;5017474;28;20231;-74
2021/11/15 09:33:11;;;;;;;11.33;9.07;;;;;;;5.90;100.00;98659.75;5007959;28;20216;-74
2021/11/15 09:35:42;;;;;;;14.80;9.93;;;;;;;5.90;100.00;98658.91;5000471;28;20316;-75
2021/11/15 09:38:10;;;;;;;12.40;9.43;;;;;;;5.83;100.00;98669.06;5022902;28;20211;-73
2021/11/15 09:40:39;;;;;;;14.07;10.10;;;;;;;5.82;100.00;98658.63;5012568;28;20365;-75
2021/11/15 09:43:07;;;;;;;11.53;9.33;;;;;;;5.98;100.00;98668.84;5017317;28;20707;-73
2021/11/15 09:45:35;;;;;;;11.57;9.10;;;;;;;5.88;100.00;98672.19;5009918;28;20219;-76
2021/11/15 09:48:04;;;;;;;13.57;9.73;;;;;;;6.00;100.00;98669.53;5023061;28;20211;-77
2021/11/15 09:50:33;;;;;;;12.80;10.33;;;;;;;6.11;100.00;98674.03;4983951;28;20358;-75
2021/11/15 09:53:01;;;;;;;13.47;10.23;;;;;;;6.10;100.00;98678.47;5029273;28;20207;-76
2021/11/15 09:55:29;;;;;;;12.03;9.53;;;;;;;6.19;100.00;98666.38;5022366;28;20426;-76
2021/11/15 09:57:58;;;;;;;13.43;9.17;;;;;;;6.29;100.00;98664.72;5019963;28;20223;-76
2021/11/15 10:00:27;;;;;;;12.37;8.67;;;;;;;6.26;100.00;98667.59;5007351;28;20429;-76
2021/11/15 10:02:56;;;;;;;11.83;8.80;;;;;;;6.25;100.00;98667.69;5016775;28;20235;-75
2021/11/15 10:05:27;;;;;;;11.83;9.00;;;;;;;6.20;100.00;98662.78;4981199;28;20212;-76
2021/11/15 10:07:57;;;;;;;13.07;9.47;;;;;;;6.34;100.00;98669.59;5021592;28;20209;-73
2021/11/15 10:10:40;;;;;;;11.13;9.27;;;;;;;6.48;100.00;98677.25;5013322;28;20224;-76
2021/11/15 10:13:24;;;;;;;11.53;9.10;;;;;;;6.44;100.00;98677.63;5018055;28;20205;-73
2021/11/15 10:16:04;;;;;;;13.40;9.33;;;;;;;6.36;100.00;98681.69;5012441;28;20204;-76
2021/11/15 10:18:50;;;;;;;11.37;8.70;;;;;;;6.33;100.00;98673.19;5012535;28;20917;-76
2021/11/15 10:21:22;;;;;;;10.43;8.47;;;;;;;6.35;100.00;98669.50;4985447;28;20794;-73
2021/11/15 10:23:53;;;;;;;11.77;9.13;;;;;;;6.32;100.00;98667.09;5021010;28;20242;-75
2021/11/15 10:26:28;;;;;;;11.50;9.30;;;;;;;6.34;100.00;98667.81;5012046;28;20208;-73
2021/11/15 10:29:02;;;;;;;9.10;8.07;;;;;;;6.44;100.00;98667.09;5006375;28;20211;-75
2021/11/15 10:31:53;;;;;;;10.80;8.27;;;;;;;6.46;100.00;98670.44;5015827;28;20447;-75
2021/11/15 10:34:25;;;;;;;12.10;8.73;;;;;;;6.51;100.00;98671.75;5018008;28;20208;-72
2021/11/15 10:37:09;;;;;;;11.10;9.80;;;;;;;6.70;100.00;98666.81;4983883;28;20216;-74
2021/11/15 10:39:44;;;;;;;8.77;7.87;;;;;;;6.61;100.00;98665.75;5016683;28;20905;-76
2021/11/15 10:42:16;;;;;;;11.70;9.17;;;;;;;6.59;100.00;98662.41;5016078;28;20234;-73
2021/11/15 10:44:51;;;;;;;8.73;7.83;;;;;;;6.74;100.00;98655.91;5011335;28;20219;-74
2021/11/15 10:47:27;;;;;;;10.40;8.87;;;;;;;6.72;100.00;98657.00;5021980;28;20215;-72
2021/11/15 10:50:02;;;;;;;9.63;7.80;;;;;;;6.57;100.00;98664.31;5014318;28;20254;-75
2021/11/15 10:52:33;;;;;;;11.80;8.60;;;;;;;6.60;100.00;98664.06;4997993;28;20211;-75
2021/11/15 10:55:03;;;;;;;11.27;8.47;;;;;;;6.64;100.00;98655.81;4995049;28;20318;-75
2021/11/15 10:57:38;;;;;;;8.80;7.93;;;;;;;6.65;100.00;98641.69;5024082;28;20385;-73
2021/11/15 11:00:37;;;;;;;9.40;8.40;;;;;;;6.81;100.00;98643.91;5017524;28;20211;-75
2021/11/15 11:03:16;;;;;;;11.30;8.40;;;;;;;6.79;100.00;98637.09;5015700;28;20235;-75
2021/11/15 11:05:46;;;;;;;10.03;7.77;;;;;;;7.05;100.00;98631.50;5015804;28;20211;-73
2021/11/15 11:08:18;;;;;;;9.50;8.50;;;;;;;6.80;100.00;98633.50;5019575;28;20201;-75
2021/11/15 11:10:53;;;;;;;10.43;8.23;;;;;;;6.85;100.00;98630.50;4983177;28;20242;-77
2021/11/15 11:13:24;;;;;;;10.43;8.40;;;;;;;6.82;100.00;98628.94;5020515;28;20207;-75
2021/11/15 11:15:55;;;;;;;12.50;9.23;;;;;;;6.74;100.00;98634.00;5008333;28;20907;-75
2021/11/15 11:18:33;;;;;;;10.17;8.07;;;;;;;6.68;100.00;98626.59;5015455;28;20310;-72
2021/11/15 11:26:57;;;;;;;10.87;9.73;;;;;;;7.14;100.00;98614.94;4985105;28;20220;-74
2021/11/15 11:29:32;;;;;;;10.70;9.60;;;;;;;7.01;100.00;98619.53;5020150;28;20684;-72
2021/11/15 11:32:05;;;;;;;10.13;8.83;;;;;;;6.88;100.00;98614.44;5015973;28;20261;-75
2021/11/15 11:34:34;;;;;;;12.03;8.73;;;;;;;6.91;100.00;98614.19;4995175;28;20535;-74
2021/11/15 11:37:05;;;;;;;10.27;9.23;;;;;;;7.03;100.00;98612.34;5008276;28;20207;-75
2021/11/15 11:39:35;;;;;;;10.13;9.13;;;;;;;7.04;100.00;98612.22;4998514;28;20653;-74
2021/11/15 11:42:04;;;;;;;12.37;8.87;;;;;;;7.08;100.00;98595.19;4983608;28;20235;-75